Sacramento, California
Traffic Map
Current Weather Conditions
Sacramento, California
Overcast Light Rain
Overcast

Feels Like: 5°
Wind Chill: Ceiling: 3700
Heat Index: Visibility: 7mi
Dew Point: Wind: 16mph
Humidity: 93% Direction: 150° (SSE)
Pressure: 29.73in Gusts: 24mph
Raw Report DataKSAC 220953Z AUTO 15014G21KT 7SM -RA FEW014 SCT029 OVC037 09/08 A2973 RMK AO2 PK WND 13027/0916 SLP065 P0006 T00890078
Traffic Incident Summary
Active as of:
Severity:
Category:
InformationThere was an issue retrieving the traffic information for this location. Please try a different location or try again shortly.
Advertisements
Track Severe Weather on mobile